sensor_id;sensor_type;location;lat;lon;timestamp;pressure;altitude;pressure_sealevel;temperature;humidity
20942;BME280;10630;53.734;10.282;2023-03-26T00:00:40;99721.75;;;12.71;nan
20942;BME280;10630;53.734;10.282;2023-03-26T00:03:09;99717.06;;;13.72;nan
20942;BME280;10630;53.734;10.282;2023-03-26T00:05:37;99720.25;;;14.33;nan
20942;BME280;10630;53.734;10.282;2023-03-26T00:08:04;99720.22;;;14.01;nan
20942;BME280;10630;53.734;10.282;2023-03-26T00:10:34;99717.78;;;13.99;nan
20942;BME280;10630;53.734;10.282;2023-03-26T00:13:02;99725.84;;;13.20;nan
20942;BME280;10630;53.734;10.282;2023-03-26T00:15:29;99720.34;;;14.51;nan
20942;BME280;10630;53.734;10.282;2023-03-26T00:17:56;99732.91;;;14.19;nan
20942;BME280;10630;53.734;10.282;2023-03-26T00:20:24;99734.06;;;14.30;nan
20942;BME280;10630;53.734;10.282;2023-03-26T00:22:53;99745.13;;;12.69;nan
20942;BME280;10630;53.734;10.282;2023-03-26T00:25:21;99748.13;;;14.25;nan
20942;BME280;10630;53.734;10.282;2023-03-26T00:27:49;99755.00;;;13.28;nan
20942;BME280;10630;53.734;10.282;2023-03-26T00:30:16;99757.00;;;13.60;nan
20942;BME280;10630;53.734;10.282;2023-03-26T00:32:43;99766.53;;;12.95;nan
20942;BME280;10630;53.734;10.282;2023-03-26T00:35:10;99763.22;;;13.20;nan
20942;BME280;10630;53.734;10.282;2023-03-26T00:37:38;99765.66;;;13.35;nan
20942;BME280;10630;53.734;10.282;2023-03-26T00:40:08;99765.69;;;13.42;nan
20942;BME280;10630;53.734;10.282;2023-03-26T00:42:36;99773.88;;;12.46;nan
20942;BME280;10630;53.734;10.282;2023-03-26T00:45:04;99769.63;;;13.39;nan
20942;BME280;10630;53.734;10.282;2023-03-26T00:47:32;99767.13;;;14.10;nan
20942;BME280;10630;53.734;10.282;2023-03-26T00:49:59;99778.44;;;13.13;nan
20942;BME280;10630;53.734;10.282;2023-03-26T00:52:26;99799.78;;;13.60;nan
20942;BME280;10630;53.734;10.282;2023-03-26T00:54:54;99777.41;;;13.21;nan
20942;BME280;10630;53.734;10.282;2023-03-26T00:57:21;99777.59;;;12.72;nan
20942;BME280;10630;53.734;10.282;2023-03-26T00:59:59;99786.63;;;12.51;nan
20942;BME280;10630;53.734;10.282;2023-03-26T01:02:40;99786.38;;;12.46;nan
20942;BME280;10630;53.734;10.282;2023-03-26T01:07:54;99784.59;;;13.07;nan
20942;BME280;10630;53.734;10.282;2023-03-26T01:10:21;99785.59;;;12.52;nan
20942;BME280;10630;53.734;10.282;2023-03-26T01:12:48;99790.38;;;12.90;nan
20942;BME280;10630;53.734;10.282;2023-03-26T01:15:14;99790.28;;;13.77;nan
20942;BME280;10630;53.734;10.282;2023-03-26T01:17:41;99793.44;;;13.27;nan
20942;BME280;10630;53.734;10.282;2023-03-26T01:20:16;99797.44;;;13.90;nan
20942;BME280;10630;53.734;10.282;2023-03-26T01:22:45;99797.13;;;13.33;nan
20942;BME280;10630;53.734;10.282;2023-03-26T01:25:13;99801.84;;;13.65;nan
20942;BME280;10630;53.734;10.282;2023-03-26T01:27:43;99802.25;;;13.35;nan
20942;BME280;10630;53.734;10.282;2023-03-26T01:30:15;99805.97;;;12.87;nan
20942;BME280;10630;53.734;10.282;2023-03-26T01:43:37;99808.97;;;13.84;nan
20942;BME280;10630;53.734;10.282;2023-03-26T01:46:06;99823.63;;;12.81;nan
20942;BME280;10630;53.734;10.282;2023-03-26T01:48:36;99816.88;;;13.12;nan
20942;BME280;10630;53.734;10.282;2023-03-26T01:51:04;99817.88;;;13.38;nan
20942;BME280;10630;53.734;10.282;2023-03-26T01:53:31;99814.19;;;13.39;nan
20942;BME280;10630;53.734;10.282;2023-03-26T02:04:25;99840.47;;;11.21;nan
20942;BME280;10630;53.734;10.282;2023-03-26T02:07:04;99833.00;;;11.66;nan
20942;BME280;10630;53.734;10.282;2023-03-26T02:09:34;99840.75;;;11.96;nan
20942;BME280;10630;53.734;10.282;2023-03-26T02:12:02;99845.53;;;11.44;nan
20942;BME280;10630;53.734;10.282;2023-03-26T02:14:30;99845.09;;;11.40;nan
20942;BME280;10630;53.734;10.282;2023-03-26T02:16:58;99843.81;;;11.58;nan
20942;BME280;10630;53.734;10.282;2023-03-26T02:19:26;99836.91;;;11.70;nan
20942;BME280;10630;53.734;10.282;2023-03-26T02:21:52;99848.63;;;10.98;nan
20942;BME280;10630;53.734;10.282;2023-03-26T02:24:25;99862.00;;;10.61;nan
20942;BME280;10630;53.734;10.282;2023-03-26T02:26:52;99850.31;;;10.62;nan
20942;BME280;10630;53.734;10.282;2023-03-26T02:29:18;99856.88;;;10.81;nan
20942;BME280;10630;53.734;10.282;2023-03-26T02:31:46;99853.38;;;11.24;nan
20942;BME280;10630;53.734;10.282;2023-03-26T02:34:15;99853.66;;;11.29;nan
20942;BME280;10630;53.734;10.282;2023-03-26T02:36:42;99851.56;;;11.88;nan
20942;BME280;10630;53.734;10.282;2023-03-26T02:39:09;99858.19;;;10.92;nan
20942;BME280;10630;53.734;10.282;2023-03-26T02:41:36;99863.22;;;10.43;nan
20942;BME280;10630;53.734;10.282;2023-03-26T02:44:03;99856.94;;;10.88;nan
20942;BME280;10630;53.734;10.282;2023-03-26T02:46:31;99849.22;;;11.71;nan
20942;BME280;10630;53.734;10.282;2023-03-26T02:48:58;99849.78;;;11.38;nan
20942;BME280;10630;53.734;10.282;2023-03-26T02:51:25;99852.13;;;11.77;nan
20942;BME280;10630;53.734;10.282;2023-03-26T02:53:52;99849.75;;;12.30;nan
20942;BME280;10630;53.734;10.282;2023-03-26T02:56:20;99847.16;;;11.17;nan
20942;BME280;10630;53.734;10.282;2023-03-26T02:58:47;99849.78;;;12.37;nan
20942;BME280;10630;53.734;10.282;2023-03-26T03:01:14;99858.84;;;12.49;nan
20942;BME280;10630;53.734;10.282;2023-03-26T03:03:44;99856.88;;;12.16;nan
20942;BME280;10630;53.734;10.282;2023-03-26T03:06:15;99854.75;;;12.47;nan
20942;BME280;10630;53.734;10.282;2023-03-26T03:08:44;99864.56;;;11.13;nan
20942;BME280;10630;53.734;10.282;2023-03-26T03:11:15;99863.09;;;10.88;nan
20942;BME280;10630;53.734;10.282;2023-03-26T03:13:42;99870.06;;;11.33;nan
20942;BME280;10630;53.734;10.282;2023-03-26T03:16:09;99861.44;;;11.31;nan
20942;BME280;10630;53.734;10.282;2023-03-26T03:18:36;99860.94;;;11.49;nan
20942;BME280;10630;53.734;10.282;2023-03-26T03:21:03;99862.84;;;11.55;nan
20942;BME280;10630;53.734;10.282;2023-03-26T03:23:31;99855.09;;;11.60;nan
20942;BME280;10630;53.734;10.282;2023-03-26T03:25:57;99858.56;;;11.32;nan
20942;BME280;10630;53.734;10.282;2023-03-26T03:28:24;99860.38;;;10.30;nan
20942;BME280;10630;53.734;10.282;2023-03-26T03:30:51;99865.94;;;10.87;nan
20942;BME280;10630;53.734;10.282;2023-03-26T03:33:19;99872.13;;;10.21;nan
20942;BME280;10630;53.734;10.282;2023-03-26T03:35:47;99866.91;;;11.51;nan
20942;BME280;10630;53.734;10.282;2023-03-26T03:38:15;99871.25;;;11.08;nan
20942;BME280;10630;53.734;10.282;2023-03-26T03:40:42;99876.72;;;11.00;nan
20942;BME280;10630;53.734;10.282;2023-03-26T03:43:09;99873.22;;;9.81;nan
20942;BME280;10630;53.734;10.282;2023-03-26T03:45:36;99865.81;;;11.17;nan
20942;BME280;10630;53.734;10.282;2023-03-26T03:48:02;99881.00;;;10.58;nan
20942;BME280;10630;53.734;10.282;2023-03-26T03:50:29;99870.38;;;11.80;nan
20942;BME280;10630;53.734;10.282;2023-03-26T03:52:58;99879.09;;;11.60;nan
20942;BME280;10630;53.734;10.282;2023-03-26T03:55:26;99879.84;;;11.54;nan
20942;BME280;10630;53.734;10.282;2023-03-26T03:57:53;99872.53;;;11.91;nan
20942;BME280;10630;53.734;10.282;2023-03-26T04:00:19;99885.22;;;10.89;nan
20942;BME280;10630;53.734;10.282;2023-03-26T04:02:48;99870.47;;;11.93;nan
20942;BME280;10630;53.734;10.282;2023-03-26T04:05:14;99871.50;;;11.35;nan
20942;BME280;10630;53.734;10.282;2023-03-26T04:07:41;99881.06;;;11.51;nan
20942;BME280;10630;53.734;10.282;2023-03-26T04:10:11;99866.50;;;11.54;nan
20942;BME280;10630;53.734;10.282;2023-03-26T04:12:40;99867.94;;;11.85;nan
20942;BME280;10630;53.734;10.282;2023-03-26T04:15:07;99865.34;;;11.63;nan
20942;BME280;10630;53.734;10.282;2023-03-26T04:17:35;99866.53;;;12.17;nan
20942;BME280;10630;53.734;10.282;2023-03-26T04:20:11;99867.03;;;11.14;nan
20942;BME280;10630;53.734;10.282;2023-03-26T04:22:41;99863.97;;;11.67;nan
20942;BME280;10630;53.734;10.282;2023-03-26T04:25:08;99858.66;;;12.02;nan
20942;BME280;10630;53.734;10.282;2023-03-26T04:27:35;99858.72;;;12.16;nan
20942;BME280;10630;53.734;10.282;2023-03-26T04:30:02;99853.00;;;12.19;nan
20942;BME280;10630;53.734;10.282;2023-03-26T04:32:30;99854.31;;;12.43;nan
20942;BME280;10630;53.734;10.282;2023-03-26T04:35:00;99846.97;;;12.52;nan
20942;BME280;10630;53.734;10.282;2023-03-26T04:37:33;99844.97;;;12.68;nan
20942;BME280;10630;53.734;10.282;2023-03-26T04:40:05;99842.91;;;12.63;nan
20942;BME280;10630;53.734;10.282;2023-03-26T04:42:35;99841.94;;;12.29;nan
20942;BME280;10630;53.734;10.282;2023-03-26T04:45:06;99837.97;;;12.05;nan
20942;BME280;10630;53.734;10.282;2023-03-26T04:47:33;99842.44;;;12.53;nan
20942;BME280;10630;53.734;10.282;2023-03-26T04:50:05;99840.06;;;11.81;nan
20942;BME280;10630;53.734;10.282;2023-03-26T04:52:32;99838.81;;;11.20;nan
20942;BME280;10630;53.734;10.282;2023-03-26T04:55:01;99850.16;;;10.85;nan
20942;BME280;10630;53.734;10.282;2023-03-26T04:57:28;99853.81;;;11.56;nan
20942;BME280;10630;53.734;10.282;2023-03-26T04:59:57;99862.84;;;10.17;nan
20942;BME280;10630;53.734;10.282;2023-03-26T05:02:24;99860.44;;;9.47;nan
20942;BME280;10630;53.734;10.282;2023-03-26T05:04:51;99854.03;;;10.31;nan
20942;BME280;10630;53.734;10.282;2023-03-26T05:07:19;99858.47;;;11.19;nan
20942;BME280;10630;53.734;10.282;2023-03-26T05:09:46;99861.84;;;10.48;nan
20942;BME280;10630;53.734;10.282;2023-03-26T05:12:12;99858.22;;;11.14;nan
20942;BME280;10630;53.734;10.282;2023-03-26T05:14:39;99857.16;;;11.65;nan
20942;BME280;10630;53.734;10.282;2023-03-26T05:17:06;99848.31;;;11.07;nan
20942;BME280;10630;53.734;10.282;2023-03-26T05:19:36;99862.25;;;10.14;nan
20942;BME280;10630;53.734;10.282;2023-03-26T05:22:04;99866.88;;;9.14;nan
20942;BME280;10630;53.734;10.282;2023-03-26T05:24:31;99870.13;;;9.01;nan
20942;BME280;10630;53.734;10.282;2023-03-26T05:26:57;99875.06;;;8.81;nan
20942;BME280;10630;53.734;10.282;2023-03-26T05:29:24;99877.03;;;9.49;nan
20942;BME280;10630;53.734;10.282;2023-03-26T05:31:52;99877.78;;;9.19;nan
20942;BME280;10630;53.734;10.282;2023-03-26T05:34:19;99873.41;;;9.80;nan
20942;BME280;10630;53.734;10.282;2023-03-26T05:36:46;99875.38;;;9.48;nan
20942;BME280;10630;53.734;10.282;2023-03-26T05:39:13;99879.53;;;9.80;nan
20942;BME280;10630;53.734;10.282;2023-03-26T05:41:40;99877.78;;;10.48;nan
20942;BME280;10630;53.734;10.282;2023-03-26T05:44:07;99880.72;;;9.93;nan
20942;BME280;10630;53.734;10.282;2023-03-26T05:46:35;99881.81;;;10.58;nan
20942;BME280;10630;53.734;10.282;2023-03-26T05:49:01;99878.41;;;10.65;nan
20942;BME280;10630;53.734;10.282;2023-03-26T05:51:28;99876.66;;;11.15;nan
20942;BME280;10630;53.734;10.282;2023-03-26T05:53:55;99888.09;;;10.87;nan
20942;BME280;10630;53.734;10.282;2023-03-26T05:56:21;99881.66;;;10.30;nan
20942;BME280;10630;53.734;10.282;2023-03-26T05:58:48;99883.28;;;10.61;nan
20942;BME280;10630;53.734;10.282;2023-03-26T06:01:17;99878.78;;;11.48;nan
20942;BME280;10630;53.734;10.282;2023-03-26T06:03:45;99883.56;;;10.88;nan
20942;BME280;10630;53.734;10.282;2023-03-26T06:06:13;99888.16;;;10.57;nan
20942;BME280;10630;53.734;10.282;2023-03-26T06:08:41;99887.25;;;10.87;nan
20942;BME280;10630;53.734;10.282;2023-03-26T06:11:09;99890.41;;;10.97;nan
20942;BME280;10630;53.734;10.282;2023-03-26T06:13:38;99887.75;;;10.97;nan
20942;BME280;10630;53.734;10.282;2023-03-26T06:16:05;99889.56;;;10.75;nan
20942;BME280;10630;53.734;10.282;2023-03-26T06:18:32;99898.88;;;10.34;nan
20942;BME280;10630;53.734;10.282;2023-03-26T06:20:59;99893.84;;;10.54;nan
20942;BME280;10630;53.734;10.282;2023-03-26T06:23:26;99899.63;;;10.28;nan
20942;BME280;10630;53.734;10.282;2023-03-26T06:25:53;99907.03;;;9.88;nan
20942;BME280;10630;53.734;10.282;2023-03-26T06:28:19;99902.72;;;10.61;nan
20942;BME280;10630;53.734;10.282;2023-03-26T06:30:46;99912.31;;;10.77;nan
20942;BME280;10630;53.734;10.282;2023-03-26T06:33:13;99913.38;;;10.17;nan
20942;BME280;10630;53.734;10.282;2023-03-26T06:35:40;99919.38;;;10.85;nan
20942;BME280;10630;53.734;10.282;2023-03-26T06:38:08;99918.28;;;10.80;nan
20942;BME280;10630;53.734;10.282;2023-03-26T06:40:34;99919.91;;;10.59;nan
20942;BME280;10630;53.734;10.282;2023-03-26T06:43:01;99930.19;;;10.47;nan
20942;BME280;10630;53.734;10.282;2023-03-26T06:45:34;99916.63;;;11.65;nan
20942;BME280;10630;53.734;10.282;2023-03-26T06:48:01;99928.59;;;11.26;nan
20942;BME280;10630;53.734;10.282;2023-03-26T06:50:29;99929.78;;;10.35;nan
20942;BME280;10630;53.734;10.282;2023-03-26T06:52:57;99927.13;;;11.02;nan
20942;BME280;10630;53.734;10.282;2023-03-26T06:55:24;99926.56;;;11.06;nan
20942;BME280;10630;53.734;10.282;2023-03-26T06:57:51;99925.72;;;11.28;nan
20942;BME280;10630;53.734;10.282;2023-03-26T07:00:19;99920.41;;;10.69;nan
20942;BME280;10630;53.734;10.282;2023-03-26T07:02:46;99933.69;;;11.21;nan
20942;BME280;10630;53.734;10.282;2023-03-26T07:05:13;99940.44;;;10.65;nan
20942;BME280;10630;53.734;10.282;2023-03-26T07:07:40;99941.00;;;10.60;nan
20942;BME280;10630;53.734;10.282;2023-03-26T07:10:11;99949.69;;;10.09;nan
20942;BME280;10630;53.734;10.282;2023-03-26T07:12:38;99952.53;;;9.31;nan
20942;BME280;10630;53.734;10.282;2023-03-26T07:15:05;99950.06;;;10.51;nan
20942;BME280;10630;53.734;10.282;2023-03-26T07:17:32;99937.69;;;10.13;nan
20942;BME280;10630;53.734;10.282;2023-03-26T07:19:59;99942.53;;;10.25;nan
20942;BME280;10630;53.734;10.282;2023-03-26T07:22:26;99938.59;;;10.21;nan
20942;BME280;10630;53.734;10.282;2023-03-26T07:24:53;99938.88;;;10.26;nan
20942;BME280;10630;53.734;10.282;2023-03-26T07:29:51;99941.53;;;10.11;nan
20942;BME280;10630;53.734;10.282;2023-03-26T07:34:59;99945.44;;;10.00;nan
20942;BME280;10630;53.734;10.282;2023-03-26T07:45:16;99952.50;;;9.08;nan
20942;BME280;10630;53.734;10.282;2023-03-26T07:47:44;99941.34;;;10.12;nan
20942;BME280;10630;53.734;10.282;2023-03-26T07:50:16;99948.41;;;10.35;nan
20942;BME280;10630;53.734;10.282;2023-03-26T07:52:44;99952.78;;;9.22;nan
20942;BME280;10630;53.734;10.282;2023-03-26T07:55:12;99949.09;;;9.46;nan
20942;BME280;10630;53.734;10.282;2023-03-26T07:57:43;99951.44;;;9.64;nan
20942;BME280;10630;53.734;10.282;2023-03-26T08:02:52;99941.59;;;9.88;nan
20942;BME280;10630;53.734;10.282;2023-03-26T08:05:28;99939.69;;;9.58;nan
20942;BME280;10630;53.734;10.282;2023-03-26T08:10:28;99935.03;;;10.13;nan
20942;BME280;10630;53.734;10.282;2023-03-26T08:20:44;99948.50;;;9.59;nan
20942;BME280;10630;53.734;10.282;2023-03-26T08:25:45;99942.16;;;11.09;nan
20942;BME280;10630;53.734;10.282;2023-03-26T08:30:45;99957.66;;;10.09;nan
20942;BME280;10630;53.734;10.282;2023-03-26T08:33:19;99955.84;;;10.55;nan
20942;BME280;10630;53.734;10.282;2023-03-26T08:35:48;99950.81;;;10.30;nan
20942;BME280;10630;53.734;10.282;2023-03-26T08:38:16;99942.63;;;10.61;nan
20942;BME280;10630;53.734;10.282;2023-03-26T08:51:22;99942.16;;;10.73;nan
20942;BME280;10630;53.734;10.282;2023-03-26T08:56:52;99957.88;;;10.23;nan
20942;BME280;10630;53.734;10.282;2023-03-26T09:01:57;99945.09;;;11.36;nan
20942;BME280;10630;53.734;10.282;2023-03-26T09:22:52;99945.03;;;12.43;nan
20942;BME280;10630;53.734;10.282;2023-03-26T09:25:24;99936.19;;;12.91;nan
20942;BME280;10630;53.734;10.282;2023-03-26T09:28:59;99932.91;;;12.89;nan
20942;BME280;10630;53.734;10.282;2023-03-26T09:33:56;99932.03;;;12.75;nan
20942;BME280;10630;53.734;10.282;2023-03-26T09:58:17;99945.94;;;12.57;nan
20942;BME280;10630;53.734;10.282;2023-03-26T10:03:16;99933.41;;;14.07;nan
20942;BME280;10630;53.734;10.282;2023-03-26T10:21:25;99943.25;;;13.06;nan
20942;BME280;10630;53.734;10.282;2023-03-26T10:32:29;99954.34;;;13.16;nan
20942;BME280;10630;53.734;10.282;2023-03-26T10:35:02;99956.72;;;12.84;nan
20942;BME280;10630;53.734;10.282;2023-03-26T10:40:19;99940.88;;;15.09;nan
20942;BME280;10630;53.734;10.282;2023-03-26T10:45:27;99940.47;;;14.67;nan
20942;BME280;10630;53.734;10.282;2023-03-26T10:53:11;99960.00;;;12.86;nan
20942;BME280;10630;53.734;10.282;2023-03-26T10:55:41;99948.78;;;13.11;nan
20942;BME280;10630;53.734;10.282;2023-03-26T11:03:50;99957.50;;;13.40;nan
20942;BME280;10630;53.734;10.282;2023-03-26T11:32:44;99948.03;;;15.47;nan
20942;BME280;10630;53.734;10.282;2023-03-26T11:35:33;99950.63;;;14.97;nan
20942;BME280;10630;53.734;10.282;2023-03-26T11:38:30;99948.00;;;14.83;nan
20942;BME280;10630;53.734;10.282;2023-03-26T11:40:53;99953.41;;;13.57;nan
20942;BME280;10630;53.734;10.282;2023-03-26T11:43:25;99954.00;;;13.46;nan
20942;BME280;10630;53.734;10.282;2023-03-26T11:45:55;99958.84;;;14.43;nan
20942;BME280;10630;53.734;10.282;2023-03-26T11:48:24;99954.97;;;14.32;nan
20942;BME280;10630;53.734;10.282;2023-03-26T11:50:55;99956.22;;;13.29;nan
20942;BME280;10630;53.734;10.282;2023-03-26T11:53:27;99948.88;;;14.64;nan
20942;BME280;10630;53.734;10.282;2023-03-26T11:55:59;99950.69;;;14.11;nan
20942;BME280;10630;53.734;10.282;2023-03-26T11:58:34;99944.69;;;14.22;nan
20942;BME280;10630;53.734;10.282;2023-03-26T12:01:15;99952.53;;;14.83;nan
20942;BME280;10630;53.734;10.282;2023-03-26T12:03:49;99956.88;;;13.98;nan
20942;BME280;10630;53.734;10.282;2023-03-26T12:06:22;99951.06;;;13.14;nan
20942;BME280;10630;53.734;10.282;2023-03-26T12:08:53;99939.41;;;13.82;nan
20942;BME280;10630;53.734;10.282;2023-03-26T12:11:22;99957.69;;;13.45;nan
20942;BME280;10630;53.734;10.282;2023-03-26T12:13:57;99944.47;;;14.31;nan
20942;BME280;10630;53.734;10.282;2023-03-26T12:16:25;99936.00;;;15.57;nan
20942;BME280;10630;53.734;10.282;2023-03-26T12:19:36;99931.16;;;15.15;nan
20942;BME280;10630;53.734;10.282;2023-03-26T12:21:47;99939.41;;;14.68;nan
20942;BME280;10630;53.734;10.282;2023-03-26T12:24:28;99947.84;;;14.06;nan
20942;BME280;10630;53.734;10.282;2023-03-26T12:29:50;99936.31;;;14.64;nan
20942;BME280;10630;53.734;10.282;2023-03-26T12:32:55;99938.00;;;14.59;nan
20942;BME280;10630;53.734;10.282;2023-03-26T12:35:18;99934.44;;;13.25;nan
20942;BME280;10630;53.734;10.282;2023-03-26T12:37:48;99922.72;;;15.11;nan
20942;BME280;10630;53.734;10.282;2023-03-26T12:49:13;99929.09;;;14.06;nan
20942;BME280;10630;53.734;10.282;2023-03-26T12:57:24;99940.25;;;12.80;nan
20942;BME280;10630;53.734;10.282;2023-03-26T13:00:14;99940.22;;;13.89;nan
20942;BME280;10630;53.734;10.282;2023-03-26T13:16:07;99932.19;;;14.09;nan
20942;BME280;10630;53.734;10.282;2023-03-26T13:18:44;99933.84;;;13.43;nan
20942;BME280;10630;53.734;10.282;2023-03-26T13:24:11;99926.03;;;14.61;nan
20942;BME280;10630;53.734;10.282;2023-03-26T13:29:13;99924.41;;;13.81;nan
20942;BME280;10630;53.734;10.282;2023-03-26T13:31:48;99923.31;;;13.22;nan
20942;BME280;10630;53.734;10.282;2023-03-26T13:34:23;99928.88;;;14.07;nan
20942;BME280;10630;53.734;10.282;2023-03-26T13:39:26;99919.09;;;14.47;nan
20942;BME280;10630;53.734;10.282;2023-03-26T13:42:01;99919.91;;;15.57;nan
20942;BME280;10630;53.734;10.282;2023-03-26T13:49:48;99920.50;;;13.50;nan
20942;BME280;10630;53.734;10.282;2023-03-26T13:52:19;99919.47;;;13.65;nan
20942;BME280;10630;53.734;10.282;2023-03-26T13:57:28;99925.59;;;13.25;nan
20942;BME280;10630;53.734;10.282;2023-03-26T14:02:36;99910.84;;;14.48;nan
20942;BME280;10630;53.734;10.282;2023-03-26T14:07:39;99919.06;;;13.41;nan
20942;BME280;10630;53.734;10.282;2023-03-26T14:10:09;99924.41;;;13.41;nan
20942;BME280;10630;53.734;10.282;2023-03-26T14:12:46;99918.03;;;13.82;nan
20942;BME280;10630;53.734;10.282;2023-03-26T14:15:25;99929.28;;;13.17;nan
20942;BME280;10630;53.734;10.282;2023-03-26T14:17:57;99921.69;;;13.95;nan
20942;BME280;10630;53.734;10.282;2023-03-26T14:20:35;99927.66;;;13.83;nan
20942;BME280;10630;53.734;10.282;2023-03-26T14:33:49;99936.94;;;13.47;nan
20942;BME280;10630;53.734;10.282;2023-03-26T14:41:49;99936.25;;;14.25;nan
20942;BME280;10630;53.734;10.282;2023-03-26T14:44:25;99934.59;;;15.22;nan
20942;BME280;10630;53.734;10.282;2023-03-26T14:49:39;99930.44;;;14.35;nan
20942;BME280;10630;53.734;10.282;2023-03-26T14:54:42;99927.78;;;14.35;nan
20942;BME280;10630;53.734;10.282;2023-03-26T14:59:49;99914.00;;;15.98;nan
20942;BME280;10630;53.734;10.282;2023-03-26T15:05:39;99930.97;;;13.92;nan
20942;BME280;10630;53.734;10.282;2023-03-26T15:08:30;99925.59;;;13.99;nan
20942;BME280;10630;53.734;10.282;2023-03-26T15:19:19;99925.19;;;15.06;nan
20942;BME280;10630;53.734;10.282;2023-03-26T15:25:00;99933.25;;;13.48;nan
20942;BME280;10630;53.734;10.282;2023-03-26T15:44:05;99947.44;;;13.62;nan
20942;BME280;10630;53.734;10.282;2023-03-26T15:49:23;99947.16;;;14.24;nan
20942;BME280;10630;53.734;10.282;2023-03-26T15:52:03;99959.38;;;13.73;nan
20942;BME280;10630;53.734;10.282;2023-03-26T15:54:35;99949.94;;;14.69;nan
20942;BME280;10630;53.734;10.282;2023-03-26T15:59:57;99952.13;;;14.20;nan
20942;BME280;10630;53.734;10.282;2023-03-26T16:05:18;99956.78;;;14.45;nan
20942;BME280;10630;53.734;10.282;2023-03-26T16:07:57;99954.09;;;15.04;nan
20942;BME280;10630;53.734;10.282;2023-03-26T16:10:43;99958.53;;;14.06;nan
20942;BME280;10630;53.734;10.282;2023-03-26T16:24:10;99962.88;;;14.79;nan
20942;BME280;10630;53.734;10.282;2023-03-26T16:26:46;99956.81;;;14.32;nan
20942;BME280;10630;53.734;10.282;2023-03-26T16:29:22;99956.81;;;14.38;nan
20942;BME280;10630;53.734;10.282;2023-03-26T16:37:05;99972.13;;;13.71;nan
20942;BME280;10630;53.734;10.282;2023-03-26T16:39:51;99972.13;;;13.98;nan
20942;BME280;10630;53.734;10.282;2023-03-26T16:45:26;99982.72;;;13.24;nan
20942;BME280;10630;53.734;10.282;2023-03-26T16:50:43;99988.00;;;13.04;nan
20942;BME280;10630;53.734;10.282;2023-03-26T16:56:22;99991.03;;;14.09;nan
20942;BME280;10630;53.734;10.282;2023-03-26T16:58:36;99993.88;;;12.79;nan
20942;BME280;10630;53.734;10.282;2023-03-26T17:01:17;100000.06;;;12.86;nan
20942;BME280;10630;53.734;10.282;2023-03-26T17:03:54;100004.44;;;12.52;nan
20942;BME280;10630;53.734;10.282;2023-03-26T17:06:46;100007.53;;;13.04;nan
20942;BME280;10630;53.734;10.282;2023-03-26T17:14:34;100014.59;;;13.25;nan
20942;BME280;10630;53.734;10.282;2023-03-26T17:22:25;100025.59;;;13.71;nan
20942;BME280;10630;53.734;10.282;2023-03-26T17:25:01;100028.06;;;13.66;nan
20942;BME280;10630;53.734;10.282;2023-03-26T17:32:51;100035.97;;;12.77;nan
20942;BME280;10630;53.734;10.282;2023-03-26T17:35:39;100048.66;;;11.90;nan
20942;BME280;10630;53.734;10.282;2023-03-26T17:38:08;100056.81;;;11.60;nan
20942;BME280;10630;53.734;10.282;2023-03-26T17:40:58;100064.09;;;11.51;nan
20942;BME280;10630;53.734;10.282;2023-03-26T17:46:17;100071.19;;;10.92;nan
20942;BME280;10630;53.734;10.282;2023-03-26T17:48:48;100078.97;;;11.23;nan
20942;BME280;10630;53.734;10.282;2023-03-26T17:53:51;100082.53;;;11.16;nan
20942;BME280;10630;53.734;10.282;2023-03-26T17:56:19;100087.16;;;10.92;nan
20942;BME280;10630;53.734;10.282;2023-03-26T17:58:49;100084.59;;;11.14;nan
20942;BME280;10630;53.734;10.282;2023-03-26T18:01:36;100083.03;;;10.89;nan
20942;BME280;10630;53.734;10.282;2023-03-26T18:04:10;100088.97;;;11.58;nan
20942;BME280;10630;53.734;10.282;2023-03-26T18:16:58;100107.22;;;11.39;nan
20942;BME280;10630;53.734;10.282;2023-03-26T18:19:27;100111.75;;;11.61;nan
20942;BME280;10630;53.734;10.282;2023-03-26T18:21:55;100118.00;;;11.01;nan
20942;BME280;10630;53.734;10.282;2023-03-26T18:24:35;100115.22;;;11.76;nan
20942;BME280;10630;53.734;10.282;2023-03-26T18:27:18;100117.34;;;12.02;nan
20942;BME280;10630;53.734;10.282;2023-03-26T18:32:24;100125.34;;;11.29;nan
20942;BME280;10630;53.734;10.282;2023-03-26T18:35:12;100134.19;;;11.66;nan
20942;BME280;10630;53.734;10.282;2023-03-26T18:37:39;100135.84;;;11.67;nan
20942;BME280;10630;53.734;10.282;2023-03-26T18:40:19;100141.78;;;11.18;nan
20942;BME280;10630;53.734;10.282;2023-03-26T18:42:47;100139.06;;;11.48;nan
20942;BME280;10630;53.734;10.282;2023-03-26T18:45:36;100141.19;;;11.52;nan
20942;BME280;10630;53.734;10.282;2023-03-26T18:48:05;100151.63;;;10.26;nan
20942;BME280;10630;53.734;10.282;2023-03-26T18:50:37;100150.84;;;10.79;nan
20942;BME280;10630;53.734;10.282;2023-03-26T18:53:06;100153.06;;;10.13;nan
20942;BME280;10630;53.734;10.282;2023-03-26T18:55:35;100158.84;;;10.40;nan
20942;BME280;10630;53.734;10.282;2023-03-26T18:58:25;100165.69;;;10.11;nan
20942;BME280;10630;53.734;10.282;2023-03-26T19:00:54;100159.22;;;10.37;nan
20942;BME280;10630;53.734;10.282;2023-03-26T19:03:22;100172.56;;;10.29;nan
20942;BME280;10630;53.734;10.282;2023-03-26T19:06:06;100177.47;;;10.40;nan
20942;BME280;10630;53.734;10.282;2023-03-26T19:08:36;100176.34;;;10.11;nan
20942;BME280;10630;53.734;10.282;2023-03-26T19:11:07;100173.03;;;10.09;nan
20942;BME280;10630;53.734;10.282;2023-03-26T19:13:35;100182.06;;;10.85;nan
20942;BME280;10630;53.734;10.282;2023-03-26T19:16:06;100183.81;;;10.31;nan
20942;BME280;10630;53.734;10.282;2023-03-26T19:18:35;100193.44;;;9.86;nan
20942;BME280;10630;53.734;10.282;2023-03-26T19:21:03;100188.78;;;9.88;nan
20942;BME280;10630;53.734;10.282;2023-03-26T19:23:43;100198.44;;;10.12;nan